NCAR-RAP Real-Time Weather Data

Output produced by METARs form (23 February 2020  02:01 UTC)
found at http://weather.rap.ucar.edu/surface/
 
RJBB 230130Z 30015KT 9999 FEW030 10/M03 Q1026 NOSIG
 
RJBD 230100Z 32015KT 9999 FEW030 SCT045 11/01 Q1024
 
RJBE 230100Z 29014KT 9999 FEW040 10/M03 Q1025
 
RJBT 230100Z 18004KT 090V250 9999 FEW001 SCT025 BKN035 05/03 Q1024
 
RJOA 230100Z 30012KT 9999 FEW040 07/M05 Q1026
 
RJOB 230100Z 32009KT 240V360 9999 FEW030 SCT045 08/M03 Q1025
 
RJOC 230100Z 28014KT 9999 FEW030 BKN045 08/M02 Q1027
 
RJOH 230100Z 27017KT 9999 FEW030 BKN050 10/M02 Q1026
 
RJOI 230055Z 28008KT 9999 FEW025 10/M03 A3036 RMK SLP279 T01001033
 
RJOK 230100Z VRB02KT 9999 FEW030 11/M03 Q1025
 
RJOM 230100Z 29009KT 9999 FEW035 11/M01 Q1028
 
RJOO 230100Z 29007KT 230V320 9999 FEW030 BKN050 10/M01 Q1025 RMK 1CU030 5SC050 A3027
 
RJOR 230100Z 30021KT 9999 VCSH FEW020 SCT040 BKN060 08/01 Q1026
 
RJOT 230102Z 28015G28KT 9999 FEW030 09/M04 Q1026 RMK 1CU030 A3031
 
RJOW 230100Z 30007KT 270V340 9999 FEW030 SCT040 08/M02 Q1028
 
RJOY 230100Z 26015KT 9999 FEW030 SCT060 10/M03 Q1025
 
RJDC 230100Z 29009KT 240V010 9999 FEW045 10/M02 Q1028
 
RJDT 230100Z 30011KT 230V330 CAVOK 08/M06 Q1030
 
RJFE 230100Z 32011KT 9999 FEW040 10/01 Q1031
 
RJFF 230130Z 31011KT 280V350 9999 FEW030 10/M02 Q1030 NOSIG RMK 1CU030 A3041
 
RJFG 230100Z 31016KT 9999 FEW025 12/02 Q1028
 
RJFK 230100Z 33010KT 290V010 9999 FEW020 09/M00 Q1028 RMK 1CU020 A3036 VOLCANIC ASH CLOUD S
 
RJFO 230100Z 32010KT 9999 FEW030 10/M02 Q1028
 
RJFR 230100Z 29015KT 9999 FEW045 09/M02 Q1029
 
RJFS 230100Z 33004KT 280V020 9999 FEW035 09/02 Q1030
 
RJFT 230100Z 29005KT 230V350 9999 FEW040 08/M00 Q1029
 
RJFU 230100Z 33008KT 9999 FEW040 10/01 Q1030
 
RJFM 230100Z 28010KT 9999 FEW030 12/M03 Q1027